createdAt,value
2023-02-19T00:01:37.323Z,7.87
2023-02-19T00:04:11.884Z,7.83
2023-02-19T00:06:38.330Z,7.82
2023-02-19T00:09:05.163Z,7.72
2023-02-19T00:11:33.972Z,7.77
2023-02-19T00:14:02.736Z,7.81
2023-02-19T00:16:34.466Z,7.83
2023-02-19T00:19:02.814Z,7.79
2023-02-19T00:21:30.265Z,7.77
2023-02-19T00:23:59.476Z,7.75
2023-02-19T00:26:26.674Z,7.71
2023-02-19T00:28:56.411Z,7.65
2023-02-19T00:31:25.726Z,7.64
2023-02-19T00:33:57.178Z,7.62
2023-02-19T00:36:24.946Z,7.60
2023-02-19T00:38:51.900Z,7.55
2023-02-19T00:41:20.646Z,7.55
2023-02-19T00:43:52.846Z,7.53
2023-02-19T00:46:23.616Z,7.50
2023-02-19T00:48:50.806Z,7.45
2023-02-19T00:51:17.190Z,7.40
2023-02-19T00:53:43.674Z,7.34
2023-02-19T00:56:10.214Z,7.27
2023-02-19T00:58:36.989Z,7.29
2023-02-19T01:01:05.573Z,7.29
2023-02-19T01:03:36.358Z,7.27
2023-02-19T01:06:04.278Z,7.25
2023-02-19T01:08:31.248Z,7.25
2023-02-19T01:10:58.543Z,7.14
2023-02-19T01:13:25.318Z,7.25
2023-02-19T01:15:52.135Z,7.15
2023-02-19T01:18:18.540Z,7.21
2023-02-19T01:20:45.649Z,7.18
2023-02-19T01:23:13.644Z,7.19
2023-02-19T01:25:41.565Z,7.15
2023-02-19T01:28:08.653Z,7.15
2023-02-19T01:30:36.980Z,7.10
2023-02-19T01:33:07.187Z,7.17
2023-02-19T01:35:34.065Z,7.24
2023-02-19T01:38:00.600Z,7.20
2023-02-19T01:40:27.076Z,7.24
2023-02-19T01:42:53.491Z,7.18
2023-02-19T01:45:30.009Z,7.17
2023-02-19T01:48:11.382Z,7.16
2023-02-19T01:50:47.238Z,7.19
2023-02-19T01:53:17.128Z,7.22
2023-02-19T01:55:46.201Z,7.18
2023-02-19T01:58:12.666Z,7.22
2023-02-19T02:00:39.396Z,7.19
2023-02-19T02:03:05.957Z,7.15
2023-02-19T02:05:51.075Z,7.14
2023-02-19T02:08:36.842Z,7.18
2023-02-19T02:11:03.942Z,7.10
2023-02-19T02:13:33.757Z,7.09
2023-02-19T02:16:13.801Z,7.12
2023-02-19T02:18:43.100Z,7.19
2023-02-19T02:21:29.935Z,7.16
2023-02-19T02:24:08.258Z,7.19
2023-02-19T02:26:51.099Z,7.15
2023-02-19T02:29:51.283Z,7.10
2023-02-19T02:32:24.867Z,7.16
2023-02-19T02:34:59.900Z,7.11
2023-02-19T02:37:32.222Z,7.11
2023-02-19T02:39:58.822Z,7.08
2023-02-19T02:42:28.012Z,7.10
2023-02-19T02:45:14.187Z,7.11
2023-02-19T02:47:56.693Z,7.13
2023-02-19T02:50:27.222Z,7.14
2023-02-19T02:53:19.522Z,7.16
2023-02-19T02:55:49.743Z,7.18
2023-02-19T02:58:17.950Z,7.14
2023-02-19T03:01:11.048Z,7.18
2023-02-19T03:03:41.229Z,7.14
2023-02-19T03:06:11.722Z,7.14
2023-02-19T03:08:48.037Z,7.11
2023-02-19T03:11:32.998Z,7.12
2023-02-19T03:14:35.130Z,7.16
2023-02-19T03:17:35.739Z,7.10
2023-02-19T03:20:09.438Z,7.07
2023-02-19T03:22:38.360Z,7.17
2023-02-19T03:25:32.526Z,7.08
2023-02-19T03:28:02.648Z,7.09
2023-02-19T03:30:33.482Z,7.13
2023-02-19T03:33:11.864Z,7.15
2023-02-19T03:36:00.281Z,7.14
2023-02-19T03:38:41.873Z,7.09
2023-02-19T03:41:26.368Z,7.10
2023-02-19T03:44:07.663Z,7.10
2023-02-19T03:46:57.125Z,7.12
2023-02-19T03:49:33.221Z,7.04
2023-02-19T03:52:18.959Z,7.06
2023-02-19T03:54:52.976Z,7.12
2023-02-19T03:57:29.296Z,7.16
2023-02-19T04:00:03.480Z,7.11
2023-02-19T04:02:35.937Z,7.16
2023-02-19T04:05:14.776Z,7.15
2023-02-19T04:07:46.517Z,7.13
2023-02-19T04:10:14.985Z,7.14
2023-02-19T04:12:45.682Z,7.07
2023-02-19T04:15:17.142Z,7.06
2023-02-19T04:17:52.635Z,7.11
2023-02-19T04:20:20.624Z,7.12
2023-02-19T04:22:47.420Z,7.14
2023-02-19T04:25:13.969Z,7.10
2023-02-19T04:27:44.309Z,7.11
2023-02-19T04:30:12.777Z,7.10
2023-02-19T04:32:39.225Z,7.07
2023-02-19T04:35:06.245Z,7.13
2023-02-19T04:37:32.650Z,7.12
2023-02-19T04:39:59.158Z,7.13
2023-02-19T04:42:25.596Z,7.14
2023-02-19T04:44:52.153Z,7.10
2023-02-19T04:47:18.681Z,7.11
2023-02-19T04:49:46.059Z,7.09
2023-02-19T04:52:13.110Z,7.06
2023-02-19T04:54:39.466Z,7.09
2023-02-19T04:57:05.986Z,7.12
2023-02-19T04:59:32.527Z,7.10
2023-02-19T05:01:58.922Z,7.10
2023-02-19T05:04:25.372Z,7.06
2023-02-19T05:06:51.753Z,7.08
2023-02-19T05:09:18.401Z,7.06
2023-02-19T05:11:45.444Z,7.04
2023-02-19T05:14:12.001Z,7.05
2023-02-19T05:16:38.361Z,7.03
2023-02-19T05:19:04.774Z,6.98
2023-02-19T05:21:31.250Z,6.89
2023-02-19T05:23:57.711Z,6.91
2023-02-19T05:26:24.168Z,6.92
2023-02-19T05:28:52.330Z,6.91
2023-02-19T05:31:20.089Z,6.88
2023-02-19T05:33:50.843Z,6.81
2023-02-19T05:36:18.909Z,6.80
2023-02-19T05:38:47.462Z,6.80
2023-02-19T05:41:16.891Z,6.84
2023-02-19T05:43:45.229Z,6.80
2023-02-19T05:46:15.358Z,6.77
2023-02-19T05:48:43.568Z,6.86
2023-02-19T05:51:12.974Z,6.85
2023-02-19T05:53:40.701Z,6.81
2023-02-19T05:56:40.316Z,6.76
2023-02-19T05:59:16.247Z,6.75
2023-02-19T06:01:43.348Z,6.74
2023-02-19T06:04:14.145Z,6.68
2023-02-19T06:06:41.622Z,6.72
2023-02-19T06:09:08.896Z,6.72
2023-02-19T06:11:35.527Z,6.66
2023-02-19T06:14:02.330Z,6.68
2023-02-19T06:16:29.225Z,6.74
2023-02-19T06:18:55.757Z,6.76
2023-02-19T06:21:22.194Z,6.73
2023-02-19T06:23:49.684Z,6.72
2023-02-19T06:26:21.953Z,6.74
2023-02-19T06:28:50.177Z,6.76
2023-02-19T06:31:18.297Z,6.72
2023-02-19T06:33:45.178Z,6.71
2023-02-19T06:36:14.348Z,6.67
2023-02-19T06:38:41.055Z,6.73
2023-02-19T06:41:09.089Z,6.69
2023-02-19T06:43:36.070Z,6.69
2023-02-19T06:46:04.776Z,6.59
2023-02-19T06:48:32.597Z,6.61
2023-02-19T06:50:59.229Z,6.62
2023-02-19T06:53:25.609Z,6.66
2023-02-19T06:56:23.202Z,6.70
2023-02-19T06:58:49.818Z,6.66
2023-02-19T07:01:16.368Z,6.70
2023-02-19T07:03:42.746Z,6.67
2023-02-19T07:06:09.222Z,6.72
2023-02-19T07:08:35.581Z,6.74
2023-02-19T07:11:01.904Z,6.69
2023-02-19T07:13:28.425Z,6.69
2023-02-19T07:16:03.036Z,6.69
2023-02-19T07:18:30.173Z,6.75
2023-02-19T07:21:06.125Z,6.70
2023-02-19T07:23:32.554Z,6.76
2023-02-19T07:25:58.968Z,6.82
2023-02-19T07:28:25.361Z,6.77
2023-02-19T07:30:51.834Z,6.84
2023-02-19T07:33:18.415Z,6.81
2023-02-19T07:35:48.947Z,6.84
2023-02-19T07:38:20.312Z,6.91
2023-02-19T07:41:01.322Z,6.90
2023-02-19T07:43:34.308Z,6.92
2023-02-19T07:46:05.510Z,6.97
2023-02-19T07:48:31.952Z,7.07
2023-02-19T07:51:00.272Z,7.07
2023-02-19T07:53:27.970Z,7.07
2023-02-19T07:55:58.645Z,7.06
2023-02-19T07:58:25.024Z,7.00
2023-02-19T08:00:51.462Z,7.00
2023-02-19T08:03:18.079Z,7.04
2023-02-19T08:05:44.933Z,6.99
2023-02-19T08:08:14.163Z,7.07
2023-02-19T08:10:59.975Z,7.14
2023-02-19T08:13:29.949Z,7.20
2023-02-19T08:16:18.458Z,7.31
2023-02-19T08:18:48.503Z,7.31
2023-02-19T08:21:18.032Z,7.33
2023-02-19T08:23:46.163Z,7.34
2023-02-19T08:26:12.658Z,7.33
2023-02-19T08:28:39.182Z,7.39
2023-02-19T08:31:07.204Z,7.39
2023-02-19T08:33:34.206Z,7.37
2023-02-19T08:36:05.974Z,7.41
2023-02-19T08:38:35.789Z,7.45
2023-02-19T08:41:13.581Z,7.48
2023-02-19T08:43:41.540Z,7.49
2023-02-19T08:46:10.226Z,7.52
2023-02-19T08:48:37.229Z,7.55
2023-02-19T08:51:08.302Z,7.61
2023-02-19T08:53:35.606Z,7.56
2023-02-19T08:56:12.527Z,7.58
2023-02-19T08:58:39.204Z,7.55
2023-02-19T09:01:14.635Z,7.48
2023-02-19T09:03:41.819Z,7.50
2023-02-19T09:06:14.488Z,7.48
2023-02-19T09:08:40.892Z,7.49
2023-02-19T09:11:07.385Z,7.50
2023-02-19T09:13:34.044Z,7.55
2023-02-19T09:16:02.171Z,7.54
2023-02-19T09:18:28.577Z,7.61
2023-02-19T09:20:55.115Z,7.63
2023-02-19T09:23:21.519Z,7.59
2023-02-19T09:25:48.055Z,7.63
2023-02-19T09:28:15.516Z,7.66
2023-02-19T09:30:42.060Z,7.75
2023-02-19T09:33:08.429Z,7.78
2023-02-19T09:35:38.005Z,7.72
2023-02-19T09:38:04.456Z,7.72
2023-02-19T09:40:31.090Z,7.69
2023-02-19T09:42:57.693Z,7.68
2023-02-19T09:45:26.143Z,7.65
2023-02-19T09:47:57.781Z,7.63
2023-02-19T09:50:34.244Z,7.62
2023-02-19T09:53:04.537Z,7.57
2023-02-19T09:55:32.718Z,7.65
2023-02-19T09:58:02.270Z,7.65
2023-02-19T10:00:34.503Z,7.67
2023-02-19T10:03:17.237Z,7.80
2023-02-19T10:05:43.751Z,7.92
2023-02-19T10:08:19.370Z,7.92
2023-02-19T10:10:46.247Z,7.86
2023-02-19T10:13:27.674Z,7.88
2023-02-19T10:16:00.616Z,7.80
2023-02-19T10:18:32.202Z,7.92
2023-02-19T10:20:58.648Z,7.94
2023-02-19T10:23:26.244Z,7.99
2023-02-19T10:25:57.079Z,7.98
2023-02-19T10:28:28.409Z,8.02
2023-02-19T10:30:57.303Z,8.01
2023-02-19T10:33:24.069Z,8.01
2023-02-19T10:35:59.847Z,8.00
2023-02-19T10:38:32.714Z,8.01
2023-02-19T10:41:13.236Z,7.95
2023-02-19T10:43:43.665Z,7.89
2023-02-19T10:46:21.095Z,7.88
2023-02-19T10:48:54.698Z,7.79
2023-02-19T10:51:30.312Z,7.75
2023-02-19T10:54:04.687Z,7.75
2023-02-19T10:56:31.333Z,7.67
2023-02-19T10:59:26.182Z,7.73
2023-02-19T11:02:01.015Z,7.71
2023-02-19T11:04:34.153Z,7.70
2023-02-19T11:07:11.456Z,7.78
2023-02-19T11:09:40.063Z,7.81
2023-02-19T11:12:09.474Z,7.89
2023-02-19T11:14:36.481Z,7.94
2023-02-19T11:17:05.557Z,7.89
2023-02-19T11:19:38.064Z,7.93
2023-02-19T11:22:26.388Z,7.96
2023-02-19T11:24:57.318Z,7.90
2023-02-19T11:27:25.426Z,7.93
2023-02-19T11:29:51.828Z,7.91
2023-02-19T11:32:24.624Z,7.92
2023-02-19T11:34:51.791Z,7.89
2023-02-19T11:37:21.048Z,7.82
2023-02-19T11:39:49.377Z,7.92
2023-02-19T11:42:29.412Z,7.89
2023-02-19T11:45:28.303Z,7.95
2023-02-19T11:48:09.998Z,8.04
2023-02-19T11:50:57.751Z,8.15
2023-02-19T11:53:37.132Z,8.20
2023-02-19T11:56:33.656Z,8.21
2023-02-19T11:59:01.645Z,8.05
2023-02-19T12:01:53.931Z,7.91
2023-02-19T12:05:08.539Z,7.84
2023-02-19T12:08:00.146Z,7.79
2023-02-19T12:10:48.761Z,7.90
2023-02-19T12:13:34.301Z,7.98
2023-02-19T12:16:04.705Z,8.09
2023-02-19T12:18:42.093Z,8.19
2023-02-19T12:21:32.429Z,8.29
2023-02-19T12:24:17.166Z,8.60
2023-02-19T12:27:11.187Z,8.82
2023-02-19T12:30:17.127Z,8.84
2023-02-19T12:33:04.486Z,8.73
2023-02-19T12:35:56.925Z,8.80
2023-02-19T12:38:55.620Z,8.80
2023-02-19T12:41:51.889Z,8.74
2023-02-19T12:44:33.347Z,8.69
2023-02-19T12:47:01.483Z,8.50
2023-02-19T12:49:35.062Z,8.41
2023-02-19T12:52:15.999Z,8.31
2023-02-19T12:54:45.754Z,8.25
2023-02-19T12:57:20.710Z,8.16
2023-02-19T12:59:56.101Z,7.94
2023-02-19T13:02:29.921Z,7.91
2023-02-19T13:05:03.887Z,7.86
2023-02-19T13:07:44.434Z,7.80
2023-02-19T13:10:10.890Z,7.89
2023-02-19T13:12:41.042Z,7.85
2023-02-19T13:15:17.683Z,8.00
2023-02-19T13:17:48.879Z,8.29
2023-02-19T13:20:42.230Z,8.59
2023-02-19T13:23:35.986Z,8.62
2023-02-19T13:26:23.291Z,8.58
2023-02-19T13:29:07.203Z,8.54
2023-02-19T13:32:01.853Z,8.55
2023-02-19T13:34:48.036Z,8.58
2023-02-19T13:37:16.243Z,8.73
2023-02-19T13:39:49.865Z,8.78
2023-02-19T13:42:36.645Z,8.83
2023-02-19T13:45:06.303Z,8.72
2023-02-19T13:47:56.100Z,8.68
2023-02-19T13:50:30.632Z,8.67
2023-02-19T13:53:01.846Z,8.66
2023-02-19T13:55:49.666Z,8.77
2023-02-19T13:58:36.056Z,8.96
2023-02-19T14:01:08.100Z,8.97
2023-02-19T14:03:34.501Z,9.07
2023-02-19T14:06:07.660Z,9.20
2023-02-19T14:08:49.131Z,9.27
2023-02-19T14:11:16.161Z,9.26
2023-02-19T14:13:51.538Z,9.21
2023-02-19T14:16:43.045Z,9.22
2023-02-19T14:19:36.383Z,9.23
2023-02-19T14:22:41.569Z,9.15
2023-02-19T14:25:14.932Z,9.11
2023-02-19T14:27:42.858Z,8.91
2023-02-19T14:30:12.475Z,8.85
2023-02-19T14:32:43.416Z,8.71
2023-02-19T14:35:23.798Z,8.60
2023-02-19T14:37:55.454Z,8.49
2023-02-19T14:40:33.307Z,8.52
2023-02-19T14:43:01.236Z,8.53
2023-02-19T14:45:30.561Z,8.46
2023-02-19T14:47:58.106Z,8.38
2023-02-19T14:50:31.384Z,8.39
2023-02-19T14:53:02.844Z,8.34
2023-02-19T14:55:37.776Z,8.29
2023-02-19T14:58:13.312Z,8.12
2023-02-19T15:00:41.730Z,8.07
2023-02-19T15:03:32.702Z,7.96
2023-02-19T15:06:08.856Z,7.87
2023-02-19T15:08:48.323Z,7.86
2023-02-19T15:11:19.126Z,7.71
2023-02-19T15:13:51.088Z,7.75
2023-02-19T15:16:25.555Z,7.81
2023-02-19T15:18:55.131Z,7.74
2023-02-19T15:21:32.732Z,7.74
2023-02-19T15:24:05.130Z,7.66
2023-02-19T15:26:43.111Z,7.60
2023-02-19T15:29:15.545Z,7.59
2023-02-19T15:31:56.745Z,7.57
2023-02-19T15:34:29.679Z,7.49
2023-02-19T15:37:10.993Z,7.46
2023-02-19T15:39:46.268Z,7.48
2023-02-19T15:42:19.973Z,7.43
2023-02-19T15:45:06.700Z,7.37
2023-02-19T15:47:41.099Z,7.23
2023-02-19T15:50:15.732Z,7.07
2023-02-19T15:52:55.080Z,7.04
2023-02-19T15:55:39.302Z,6.95
2023-02-19T15:58:20.330Z,6.80
2023-02-19T16:00:51.982Z,6.75
2023-02-19T16:03:21.370Z,6.70
2023-02-19T16:06:02.501Z,6.65
2023-02-19T16:08:34.466Z,6.57
2023-02-19T16:11:04.075Z,6.56
2023-02-19T16:13:33.192Z,6.47
2023-02-19T16:16:22.665Z,6.46
2023-02-19T16:18:51.480Z,6.46
2023-02-19T16:21:22.697Z,6.46
2023-02-19T16:23:51.897Z,6.43
2023-02-19T16:26:18.434Z,6.44
2023-02-19T16:28:49.689Z,6.41
2023-02-19T16:31:16.386Z,6.33
2023-02-19T16:33:46.117Z,6.32
2023-02-19T16:36:26.435Z,6.32
2023-02-19T16:39:08.195Z,6.33
2023-02-19T16:41:59.241Z,6.29
2023-02-19T16:44:25.923Z,6.23
2023-02-19T16:46:55.792Z,6.21
2023-02-19T16:49:23.604Z,6.13
2023-02-19T16:51:51.284Z,6.08
2023-02-19T16:54:17.698Z,6.10
2023-02-19T16:56:44.044Z,6.09
2023-02-19T16:59:10.507Z,6.07
2023-02-19T17:01:37.808Z,6.01
2023-02-19T17:04:10.822Z,5.99
2023-02-19T17:06:38.141Z,5.99
2023-02-19T17:09:06.408Z,6.00
2023-02-19T17:11:32.808Z,6.01
2023-02-19T17:13:59.189Z,5.98
2023-02-19T17:16:28.888Z,6.01
2023-02-19T17:18:56.153Z,6.03
2023-02-19T17:21:29.036Z,6.01
2023-02-19T17:23:56.691Z,6.02
2023-02-19T17:26:25.670Z,6.04
2023-02-19T17:28:52.164Z,6.05
2023-02-19T17:31:18.656Z,6.08
2023-02-19T17:33:45.619Z,6.09
2023-02-19T17:36:21.625Z,6.08
2023-02-19T17:38:48.223Z,6.14
2023-02-19T17:41:14.795Z,6.10
2023-02-19T17:43:41.195Z,6.11
2023-02-19T17:46:14.392Z,6.15
2023-02-19T17:48:40.873Z,6.16
2023-02-19T17:51:07.244Z,6.22
2023-02-19T17:53:33.595Z,6.22
2023-02-19T17:56:00.028Z,6.20
2023-02-19T17:58:26.509Z,6.15
2023-02-19T18:00:52.939Z,6.19
2023-02-19T18:03:19.560Z,6.22
2023-02-19T18:05:45.918Z,6.17
2023-02-19T18:08:12.574Z,6.15
2023-02-19T18:10:39.026Z,6.10
2023-02-19T18:13:05.445Z,6.09
2023-02-19T18:15:32.010Z,6.10
2023-02-19T18:17:58.424Z,6.07
2023-02-19T18:20:28.960Z,6.03
2023-02-19T18:22:56.085Z,6.04
2023-02-19T18:25:23.197Z,5.90
2023-02-19T18:27:50.068Z,5.94
2023-02-19T18:30:19.023Z,5.97
2023-02-19T18:32:49.379Z,5.97
2023-02-19T18:35:17.320Z,5.97
2023-02-19T18:37:44.007Z,5.99
2023-02-19T18:40:11.328Z,6.06
2023-02-19T18:42:37.742Z,6.07
2023-02-19T18:45:04.373Z,6.09
2023-02-19T18:47:30.832Z,6.08
2023-02-19T18:49:58.595Z,6.07
2023-02-19T18:52:26.400Z,6.08
2023-02-19T18:54:55.198Z,6.07
2023-02-19T18:57:23.360Z,6.13
2023-02-19T18:59:50.045Z,6.10
2023-02-19T19:02:17.187Z,6.08
2023-02-19T19:04:43.673Z,6.06
2023-02-19T19:07:10.703Z,6.07
2023-02-19T19:09:38.284Z,6.06
2023-02-19T19:12:05.168Z,6.08
2023-02-19T19:14:31.657Z,6.11
2023-02-19T19:16:58.270Z,6.12
2023-02-19T19:19:24.710Z,6.07
2023-02-19T19:21:53.439Z,6.04
2023-02-19T19:24:21.134Z,6.00
2023-02-19T19:26:48.745Z,5.93
2023-02-19T19:29:17.590Z,5.87
2023-02-19T19:31:44.757Z,5.84
2023-02-19T19:34:12.457Z,5.82
2023-02-19T19:36:38.998Z,5.86
2023-02-19T19:39:05.893Z,5.78
2023-02-19T19:41:32.413Z,5.77
2023-02-19T19:44:02.367Z,5.73
2023-02-19T19:46:28.827Z,5.80
2023-02-19T19:48:55.447Z,5.88
2023-02-19T19:51:22.147Z,5.89
2023-02-19T19:53:49.281Z,5.88
2023-02-19T19:56:17.259Z,6.02
2023-02-19T19:58:43.713Z,6.09
2023-02-19T20:01:10.743Z,6.05
2023-02-19T20:03:39.687Z,6.11
2023-02-19T20:06:06.510Z,6.12
2023-02-19T20:08:32.955Z,6.13
2023-02-19T20:11:00.429Z,6.15
2023-02-19T20:13:29.364Z,6.17
2023-02-19T20:15:56.394Z,6.18
2023-02-19T20:18:25.123Z,6.10
2023-02-19T20:20:51.629Z,6.14
2023-02-19T20:23:18.133Z,6.11
2023-02-19T20:25:44.671Z,6.10
2023-02-19T20:28:11.165Z,6.06
2023-02-19T20:30:37.625Z,6.07
2023-02-19T20:33:04.505Z,6.07
2023-02-19T20:35:31.752Z,6.08
2023-02-19T20:37:58.199Z,6.08
2023-02-19T20:40:27.375Z,6.05
2023-02-19T20:42:54.260Z,6.04
2023-02-19T20:45:21.429Z,6.05
2023-02-19T20:47:47.958Z,6.02
2023-02-19T20:50:17.060Z,6.04
2023-02-19T20:52:43.580Z,6.03
2023-02-19T20:55:10.020Z,6.07
2023-02-19T20:57:37.324Z,6.07
2023-02-19T21:00:05.771Z,6.02
2023-02-19T21:02:32.263Z,6.02
2023-02-19T21:04:58.819Z,6.07
2023-02-19T21:07:26.135Z,6.03
2023-02-19T21:09:53.365Z,6.01
2023-02-19T21:12:21.365Z,5.97
2023-02-19T21:14:47.743Z,5.90
2023-02-19T21:17:14.117Z,5.89
2023-02-19T21:19:40.662Z,5.78
2023-02-19T21:22:07.336Z,5.76
2023-02-19T21:24:33.813Z,5.77
2023-02-19T21:27:00.323Z,5.75
2023-02-19T21:29:27.171Z,5.73
2023-02-19T21:31:55.982Z,5.76
2023-02-19T21:34:25.718Z,5.63
2023-02-19T21:36:52.505Z,5.67
2023-02-19T21:39:22.093Z,5.65
2023-02-19T21:41:50.031Z,5.56
2023-02-19T21:44:17.231Z,5.58
2023-02-19T21:46:43.975Z,5.39
2023-02-19T21:49:11.469Z,5.47
2023-02-19T21:51:40.458Z,5.43
2023-02-19T21:54:08.396Z,5.49
2023-02-19T21:56:36.554Z,5.51
2023-02-19T21:59:03.564Z,5.50
2023-02-19T22:01:38.638Z,5.47
2023-02-19T22:04:07.070Z,5.43
2023-02-19T22:06:34.234Z,5.49
2023-02-19T22:09:01.520Z,5.43
2023-02-19T22:11:28.417Z,5.38
2023-02-19T22:13:54.895Z,5.37
2023-02-19T22:16:21.859Z,5.31
2023-02-19T22:18:53.377Z,5.36
2023-02-19T22:21:21.034Z,5.38
2023-02-19T22:23:49.627Z,5.32
2023-02-19T22:26:29.068Z,5.36
2023-02-19T22:28:56.008Z,5.33
2023-02-19T22:31:25.376Z,5.35
2023-02-19T22:33:52.877Z,5.29
2023-02-19T22:36:22.887Z,5.34
2023-02-19T22:38:49.640Z,5.30
2023-02-19T22:41:17.430Z,5.37
2023-02-19T22:43:44.266Z,5.41
2023-02-19T22:46:13.694Z,5.36
2023-02-19T22:48:40.459Z,5.34
2023-02-19T22:51:15.561Z,5.34
2023-02-19T22:53:46.800Z,5.35
2023-02-19T22:56:14.284Z,5.35
2023-02-19T22:58:41.911Z,5.31
2023-02-19T23:01:09.591Z,5.32
2023-02-19T23:03:52.015Z,5.28
2023-02-19T23:06:26.336Z,5.28
2023-02-19T23:08:54.480Z,5.36
2023-02-19T23:11:31.355Z,5.39
2023-02-19T23:13:58.395Z,5.41
2023-02-19T23:16:25.081Z,5.38
2023-02-19T23:18:51.857Z,5.39
2023-02-19T23:21:21.407Z,5.36
2023-02-19T23:23:48.323Z,5.39
2023-02-19T23:26:16.305Z,5.42
2023-02-19T23:28:44.073Z,5.44
2023-02-19T23:31:11.601Z,5.42
2023-02-19T23:33:38.228Z,5.42
2023-02-19T23:36:05.371Z,5.42
2023-02-19T23:38:31.904Z,5.44
2023-02-19T23:40:58.797Z,5.48
2023-02-19T23:43:25.574Z,5.46
2023-02-19T23:45:52.142Z,5.45
2023-02-19T23:48:18.781Z,5.47
2023-02-19T23:50:45.422Z,5.52
2023-02-19T23:53:11.889Z,5.51
2023-02-19T23:55:38.365Z,5.53
2023-02-19T23:58:04.734Z,5.55
